Time;durP1;ratioP1;P1;durP2;ratioP2;P2;SDS_P1;SDS_P2;PMS_P1;PMS_P2;Temp;Humidity;BMP_temperature;BMP_pressure;BME280_temperature;BME280_humidity;BME280_pressure;Samples;Min_cycle;Max_cycle;Signal;HPM_P1;HPM_P2
2022/03/25 00:00:04;;;;;;;0.30;0.30;;;7.50;65.20;;;;;;5052101;28;20531;-71
2022/03/25 00:02:30;;;;;;;0.75;0.75;;;7.60;64.70;;;;;;5034680;28;20029;-72
2022/03/25 00:04:56;;;;;;;1.05;1.05;;;8.10;64.50;;;;;;5034046;28;20071;-71
2022/03/25 00:07:22;;;;;;;0.40;0.40;;;8.20;62.90;;;;;;5051754;28;20025;-71
2022/03/25 00:09:47;;;;;;;0.57;0.57;;;8.40;62.80;;;;;;5051832;28;20033;-71
2022/03/25 00:12:13;;;;;;;0.30;0.30;;;8.60;61.70;;;;;;5051669;28;20082;-72
2022/03/25 00:14:39;;;;;;;0.20;0.20;;;8.70;61.50;;;;;;5052014;28;20021;-72
2022/03/25 00:17:05;;;;;;;0.50;0.50;;;8.70;60.90;;;;;;5051666;28;20060;-72
2022/03/25 00:19:31;;;;;;;0.55;0.47;;;8.80;61.20;;;;;;5051771;28;20052;-72
2022/03/25 00:21:56;;;;;;;1.75;1.27;;;8.70;60.40;;;;;;5051677;28;20032;-72
2022/03/25 00:24:24;;;;;;;0.52;0.52;;;8.40;62.00;;;;;;5051655;28;20029;-71
2022/03/25 00:26:50;;;;;;;0.45;0.45;;;8.40;62.10;;;;;;5051379;28;20021;-72
2022/03/25 00:29:15;;;;;;;0.30;0.30;;;8.50;62.30;;;;;;5033841;28;20032;-71
2022/03/25 00:31:41;;;;;;;0.30;0.30;;;8.30;62.00;;;;;;5052733;28;20033;-71
2022/03/25 00:34:08;;;;;;;0.80;0.80;;;8.00;62.90;;;;;;5055540;28;20029;-71
2022/03/25 00:36:34;;;;;;;0.28;0.28;;;8.00;63.40;;;;;;5055375;28;20021;-71
2022/03/25 00:39:00;;;;;;;0.52;0.52;;;7.80;63.90;;;;;;5037651;28;20025;-72
2022/03/25 00:41:26;;;;;;;2.20;1.13;;;7.80;64.30;;;;;;5055401;28;20033;-71
2022/03/25 00:43:51;;;;;;;0.30;0.30;;;7.70;64.10;;;;;;5055489;28;20086;-71
2022/03/25 00:46:17;;;;;;;0.40;0.40;;;7.80;64.30;;;;;;5020742;28;20033;-72
2022/03/25 00:48:43;;;;;;;0.50;0.50;;;7.70;64.60;;;;;;5037471;28;20488;-71
2022/03/25 00:51:10;;;;;;;1.00;1.00;;;7.40;65.50;;;;;;5055249;28;20029;-71
2022/03/25 00:53:36;;;;;;;0.40;0.40;;;7.50;65.90;;;;;;5055297;28;20083;-71
2022/03/25 00:56:04;;;;;;;0.68;0.63;;;7.80;65.10;;;;;;5054876;28;20033;-72
2022/03/25 00:58:30;;;;;;;0.30;0.30;;;7.80;63.80;;;;;;5055185;28;20166;-72
2022/03/25 01:00:56;;;;;;;0.40;0.40;;;7.30;64.50;;;;;;5055165;28;20168;-71
2022/03/25 01:03:22;;;;;;;8.48;0.75;;;6.80;65.70;;;;;;5054950;28;20052;-71
2022/03/25 01:05:49;;;;;;;0.93;0.93;;;6.30;67.40;;;;;;5036881;28;20424;-72
2022/03/25 01:08:15;;;;;;;0.30;0.30;;;6.20;69.10;;;;;;5054921;28;20111;-71
2022/03/25 01:10:43;;;;;;;0.50;0.50;;;6.00;69.80;;;;;;5036820;28;20033;-71
2022/03/25 01:13:10;;;;;;;0.30;0.30;;;5.90;70.90;;;;;;5054796;28;20488;-71
2022/03/25 01:15:35;;;;;;;0.70;0.70;;;6.10;71.30;;;;;;5054768;28;20104;-71
2022/03/25 01:18:01;;;;;;;1.65;1.55;;;6.20;70.60;;;;;;5036873;28;20049;-71
2022/03/25 01:20:27;;;;;;;0.30;0.30;;;6.10;69.70;;;;;;5054743;28;20021;-71
2022/03/25 01:22:53;;;;;;;0.60;0.60;;;5.90;69.50;;;;;;5054682;28;20029;-71
2022/03/25 01:25:19;;;;;;;3.03;2.67;;;6.00;69.90;;;;;;5036702;28;20035;-71
2022/03/25 01:27:45;;;;;;;0.40;0.40;;;5.90;70.30;;;;;;5054500;28;20021;-72
2022/03/25 01:30:11;;;;;;;1.17;1.15;;;5.90;70.30;;;;;;5054586;28;20033;-72
2022/03/25 01:32:37;;;;;;;0.93;0.93;;;5.70;70.90;;;;;;5054466;28;20129;-71
2022/03/25 01:35:06;;;;;;;0.93;0.93;;;5.70;71.30;;;;;;5054381;28;20427;-71
2022/03/25 01:37:32;;;;;;;0.30;0.30;;;5.80;70.80;;;;;;5019931;28;20070;-72
2022/03/25 01:39:58;;;;;;;0.80;0.75;;;6.10;70.30;;;;;;5054371;28;20081;-71
2022/03/25 01:42:32;;;;;;;0.40;0.40;;;6.30;69.20;;;;;;5035844;28;20029;-72
2022/03/25 01:44:58;;;;;;;0.75;0.75;;;6.40;68.60;;;;;;5054195;28;20040;-71
2022/03/25 01:47:31;;;;;;;0.30;0.30;;;6.40;68.40;;;;;;5054028;28;20052;-72
2022/03/25 01:49:58;;;;;;;1.67;1.58;;;6.60;68.50;;;;;;5054298;28;20025;-71
2022/03/25 01:52:25;;;;;;;0.30;0.30;;;6.60;67.70;;;;;;5053915;28;20102;-71
2022/03/25 01:54:50;;;;;;;0.82;0.82;;;6.50;68.20;;;;;;5036345;28;20033;-72
2022/03/25 01:57:18;;;;;;;0.30;0.30;;;6.60;68.10;;;;;;5053948;28;20025;-71
2022/03/25 01:59:45;;;;;;;3.35;1.05;;;6.50;68.40;;;;;;5054071;28;20444;-71
2022/03/25 02:02:11;;;;;;;0.30;0.30;;;6.60;67.90;;;;;;5054010;28;20523;-72
2022/03/25 02:04:38;;;;;;;1.20;1.05;;;6.50;68.00;;;;;;5036108;28;20510;-71
2022/03/25 02:07:04;;;;;;;4.47;0.73;;;6.10;68.70;;;;;;5053650;28;20059;-71
2022/03/25 02:09:31;;;;;;;0.75;0.68;;;5.60;70.40;;;;;;5053900;28;20064;-71
2022/03/25 02:11:58;;;;;;;0.30;0.30;;;5.40;71.60;;;;;;5035779;28;20090;-71
2022/03/25 02:14:24;;;;;;;0.63;0.63;;;5.50;71.50;;;;;;5053695;28;20029;-71
2022/03/25 02:16:51;;;;;;;0.60;0.60;;;5.60;71.60;;;;;;5053575;28;20025;-71
2022/03/25 02:19:18;;;;;;;0.40;0.40;;;5.90;70.60;;;;;;5053684;28;20100;-71
2022/03/25 02:21:46;;;;;;;0.30;0.30;;;5.90;69.60;;;;;;5053589;28;20432;-71
2022/03/25 02:24:15;;;;;;;1.70;1.60;;;5.70;69.60;;;;;;5053435;28;20021;-72
2022/03/25 02:26:41;;;;;;;6.50;1.52;;;5.40;70.70;;;;;;5019170;28;20036;-71
2022/03/25 02:29:09;;;;;;;0.85;0.85;;;5.40;71.30;;;;;;5053376;28;20033;-72
2022/03/25 02:31:35;;;;;;;10.30;9.45;;;5.70;70.90;;;;;;5053311;28;20078;-71
2022/03/25 02:34:04;;;;;;;0.50;0.50;;;5.80;70.60;;;;;;5035515;28;20108;-71
2022/03/25 02:36:38;;;;;;;0.70;0.70;;;6.10;69.90;;;;;;5053235;28;20045;-72
2022/03/25 02:39:09;;;;;;;3.33;3.13;;;6.20;69.80;;;;;;5053368;28;20017;-72
2022/03/25 02:41:34;;;;;;;0.30;0.30;;;6.20;69.20;;;;;;5053263;28;20025;-71
2022/03/25 02:44:00;;;;;;;1.08;0.63;;;6.40;68.90;;;;;;5053201;28;20047;-71
2022/03/25 02:46:26;;;;;;;0.40;0.40;;;6.30;68.80;;;;;;5052800;28;20413;-71
2022/03/25 02:48:53;;;;;;;0.93;0.75;;;6.20;69.20;;;;;;5035498;28;20087;-71
2022/03/25 02:51:19;;;;;;;0.40;0.40;;;6.10;69.90;;;;;;5053014;28;20112;-72
2022/03/25 02:53:44;;;;;;;0.45;0.45;;;5.80;71.10;;;;;;5052421;28;20017;-71
2022/03/25 02:56:11;;;;;;;0.40;0.40;;;5.80;70.90;;;;;;5034527;28;20423;-71
2022/03/25 02:58:37;;;;;;;2.97;2.83;;;5.80;71.30;;;;;;5035212;28;20053;-71
2022/03/25 03:01:03;;;;;;;1.55;1.17;;;5.90;70.90;;;;;;5052811;28;20456;-72
2022/03/25 03:03:29;;;;;;;1.15;1.15;;;5.90;70.50;;;;;;5052991;28;20056;-75
2022/03/25 03:05:55;;;;;;;0.30;0.30;;;5.70;71.10;;;;;;5034926;28;20115;-71
2022/03/25 03:08:21;;;;;;;0.30;0.30;;;5.50;71.70;;;;;;5053864;28;20064;-75
2022/03/25 03:10:47;;;;;;;0.30;0.30;;;5.50;71.90;;;;;;5122391;22;20072;-69
2022/03/25 03:13:13;;;;;;;1.08;1.08;;;5.50;72.40;;;;;;5033717;28;20373;-72
2022/03/25 03:15:39;;;;;;;0.30;0.30;;;5.60;72.10;;;;;;5052361;28;20024;-70
2022/03/25 03:18:06;;;;;;;1.95;1.85;;;5.30;72.90;;;;;;5052560;28;20041;-71
2022/03/25 03:20:32;;;;;;;0.50;0.50;;;5.30;73.40;;;;;;5034610;28;20032;-71
2022/03/25 03:22:58;;;;;;;0.88;0.88;;;5.30;73.20;;;;;;5052359;28;20404;-71
2022/03/25 03:25:27;;;;;;;0.30;0.30;;;5.30;73.10;;;;;;5052269;28;20067;-70
2022/03/25 03:27:54;;;;;;;0.30;0.30;;;5.40;73.30;;;;;;5034465;28;20074;-71
2022/03/25 03:30:20;;;;;;;0.40;0.40;;;5.50;72.60;;;;;;5034583;28;20021;-71
2022/03/25 03:32:45;;;;;;;0.82;0.82;;;5.40;72.50;;;;;;5052155;28;20104;-71
2022/03/25 03:35:11;;;;;;;2.08;0.75;;;5.40;72.70;;;;;;5034349;28;20017;-71
2022/03/25 03:37:45;;;;;;;0.63;0.63;;;5.20;73.60;;;;;;5052054;28;20055;-71
2022/03/25 03:40:12;;;;;;;0.73;0.73;;;5.00;74.10;;;;;;5052212;28;20029;-71
2022/03/25 03:42:38;;;;;;;0.60;0.60;;;4.90;74.90;;;;;;5052090;28;20107;-71
2022/03/25 03:45:07;;;;;;;4.57;1.25;;;5.00;74.30;;;;;;5052023;28;20025;-71
2022/03/25 03:47:33;;;;;;;0.30;0.30;;;5.20;74.20;;;;;;5051847;28;20516;-71
2022/03/25 03:49:59;;;;;;;0.45;0.45;;;5.20;74.00;;;;;;5052053;28;20021;-71
2022/03/25 03:52:25;;;;;;;9.02;8.32;;;5.30;73.80;;;;;;5051854;28;20033;-71
2022/03/25 03:54:51;;;;;;;0.30;0.30;;;5.20;74.10;;;;;;5034144;28;20056;-71
2022/03/25 03:57:17;;;;;;;4.00;1.20;;;5.10;74.50;;;;;;5051966;28;20053;-71
2022/03/25 03:59:42;;;;;;;0.85;0.85;;;5.00;74.50;;;;;;5050894;28;20020;-71
2022/03/25 04:02:08;;;;;;;0.40;0.40;;;5.00;74.70;;;;;;5051791;28;20033;-71
2022/03/25 04:04:34;;;;;;;0.30;0.30;;;5.00;75.30;;;;;;5033937;28;20083;-71
2022/03/25 04:07:00;;;;;;;1.02;0.95;;;5.10;74.90;;;;;;5055103;28;20100;-71
2022/03/25 04:09:27;;;;;;;1.05;1.05;;;5.20;74.50;;;;;;5055998;28;20027;-71
2022/03/25 04:11:53;;;;;;;0.30;0.30;;;5.10;74.70;;;;;;5055830;28;20029;-71
2022/03/25 04:14:20;;;;;;;0.90;0.90;;;5.20;74.30;;;;;;5037992;28;20126;-71
2022/03/25 04:16:46;;;;;;;0.70;0.70;;;5.10;73.30;;;;;;5055672;28;20032;-71
2022/03/25 04:19:13;;;;;;;1.75;1.65;;;5.00;73.10;;;;;;5055790;28;20029;-71
2022/03/25 04:21:39;;;;;;;1.42;1.40;;;4.70;73.90;;;;;;5038036;28;20259;-71
2022/03/25 04:24:05;;;;;;;0.63;0.63;;;4.60;73.60;;;;;;5055806;28;20104;-71
2022/03/25 04:26:31;;;;;;;0.40;0.40;;;4.40;74.00;;;;;;5055465;28;20035;-71
2022/03/25 04:28:57;;;;;;;0.52;0.52;;;4.40;74.60;;;;;;5055718;28;20029;-71
2022/03/25 04:31:23;;;;;;;0.70;0.70;;;4.40;75.10;;;;;;5055433;28;20044;-70
2022/03/25 04:33:48;;;;;;;0.30;0.30;;;4.60;75.00;;;;;;5037657;28;20029;-71
2022/03/25 04:36:14;;;;;;;13.10;12.00;;;4.70;74.90;;;;;;5055252;28;20025;-71
2022/03/25 04:38:41;;;;;;;0.73;0.73;;;5.00;74.60;;;;;;5055510;28;20092;-71
2022/03/25 04:41:09;;;;;;;0.85;0.85;;;5.10;73.60;;;;;;5021144;28;20029;-71
2022/03/25 04:43:36;;;;;;;1.23;1.23;;;5.00;73.30;;;;;;5055422;28;20656;-71
2022/03/25 04:46:03;;;;;;;0.40;0.40;;;4.80;74.30;;;;;;5037205;28;20029;-71
2022/03/25 04:48:29;;;;;;;1.50;1.40;;;4.80;75.00;;;;;;5055175;28;20086;-71
2022/03/25 04:50:55;;;;;;;0.30;0.30;;;4.80;75.10;;;;;;5055139;28;20049;-71
2022/03/25 04:53:21;;;;;;;0.50;0.50;;;4.90;75.30;;;;;;5054029;28;20053;-71
2022/03/25 04:55:46;;;;;;;0.40;0.40;;;4.80;75.50;;;;;;5055012;28;20075;-71
2022/03/25 04:58:12;;;;;;;0.75;0.75;;;4.80;75.10;;;;;;5053853;28;20490;-71
2022/03/25 05:00:38;;;;;;;0.40;0.40;;;4.60;75.60;;;;;;5055104;28;20104;-71
2022/03/25 05:03:04;;;;;;;0.30;0.30;;;4.70;74.70;;;;;;5054986;28;20028;-71
2022/03/25 05:05:32;;;;;;;0.40;0.40;;;4.70;75.20;;;;;;5036919;28;20040;-71
2022/03/25 05:07:57;;;;;;;2.35;2.15;;;4.80;74.80;;;;;;5037138;28;20404;-71
2022/03/25 05:10:24;;;;;;;0.65;0.65;;;5.00;74.60;;;;;;5037005;28;20025;-71
2022/03/25 05:12:50;;;;;;;1.65;1.55;;;5.20;74.00;;;;;;5020350;28;20059;-71
2022/03/25 05:15:16;;;;;;;1.77;1.67;;;5.30;73.60;;;;;;5036902;28;20060;-71
2022/03/25 05:17:48;;;;;;;0.40;0.40;;;5.20;73.00;;;;;;5053786;28;20041;-71
2022/03/25 05:20:16;;;;;;;0.50;0.50;;;5.20;73.70;;;;;;5036916;28;20028;-71
2022/03/25 05:22:42;;;;;;;0.30;0.30;;;5.20;73.70;;;;;;5054805;28;20025;-71
2022/03/25 05:25:09;;;;;;;0.30;0.30;;;5.30;73.40;;;;;;5054709;28;20035;-71
2022/03/25 05:27:49;;;;;;;0.30;0.30;;;5.40;73.50;;;;;;5036479;28;20029;-71
2022/03/25 05:30:19;;;;;;;3.45;1.70;;;5.50;73.30;;;;;;5054531;28;20021;-71
2022/03/25 05:32:45;;;;;;;0.30;0.30;;;5.50;72.60;;;;;;5036442;28;20070;-71
2022/03/25 05:35:10;;;;;;;0.30;0.30;;;5.40;72.60;;;;;;5054455;28;20044;-71
2022/03/25 05:37:38;;;;;;;1.20;1.20;;;5.40;73.30;;;;;;5054378;28;20052;-71
2022/03/25 05:40:05;;;;;;;0.40;0.40;;;5.70;73.30;;;;;;5036438;28;20024;-71
2022/03/25 05:42:32;;;;;;;2.28;0.60;;;5.70;72.80;;;;;;5054248;28;20194;-71
2022/03/25 05:44:58;;;;;;;0.63;0.63;;;5.80;72.40;;;;;;5054133;28;20033;-71
2022/03/25 05:47:24;;;;;;;2.05;1.52;;;5.80;72.20;;;;;;5035968;28;20385;-71
2022/03/25 05:49:49;;;;;;;3.28;2.25;;;5.70;72.40;;;;;;5019759;28;20514;-71
2022/03/25 05:52:15;;;;;;;0.77;0.68;;;5.50;73.30;;;;;;5053959;28;20025;-71
2022/03/25 05:54:41;;;;;;;3.75;1.15;;;5.50;73.80;;;;;;5035999;28;20032;-71
2022/03/25 05:57:07;;;;;;;1.13;1.13;;;5.60;73.80;;;;;;5054108;28;20047;-71
2022/03/25 05:59:33;;;;;;;0.30;0.30;;;5.80;73.20;;;;;;5054013;28;20025;-72
2022/03/25 06:01:58;;;;;;;0.73;0.73;;;5.90;73.00;;;;;;5036163;28;20091;-71
2022/03/25 06:04:24;;;;;;;1.13;1.02;;;6.00;72.60;;;;;;5053808;28;20369;-71
2022/03/25 06:06:50;;;;;;;1.10;0.85;;;6.20;73.00;;;;;;5053876;28;20526;-71
2022/03/25 06:09:16;;;;;;;0.60;0.60;;;6.20;72.60;;;;;;5053719;28;20029;-71
2022/03/25 06:11:41;;;;;;;2.00;1.40;;;6.10;73.10;;;;;;5053640;28;20085;-71
2022/03/25 06:14:07;;;;;;;0.40;0.40;;;6.10;74.60;;;;;;5035897;28;20431;-71
2022/03/25 06:16:33;;;;;;;0.63;0.63;;;6.00;75.30;;;;;;5053783;28;20040;-71
2022/03/25 06:18:59;;;;;;;0.50;0.50;;;6.10;75.60;;;;;;5035682;28;20380;-71
2022/03/25 06:21:25;;;;;;;13.48;8.80;;;6.10;76.30;;;;;;5053510;28;20103;-71
2022/03/25 06:23:51;;;;;;;4.07;1.67;;;6.20;76.60;;;;;;5052398;28;20025;-71
2022/03/25 06:26:17;;;;;;;0.30;0.30;;;6.30;75.70;;;;;;5051767;28;20031;-71
2022/03/25 06:28:43;;;;;;;2.10;1.73;;;6.60;74.50;;;;;;5053261;28;20423;-72
2022/03/25 06:31:08;;;;;;;0.20;0.20;;;6.80;72.30;;;;;;5053287;28;20027;-71
2022/03/25 06:33:37;;;;;;;2.45;1.95;;;7.00;71.80;;;;;;5034689;28;20028;-71
2022/03/25 06:36:04;;;;;;;0.77;0.77;;;7.10;70.60;;;;;;5052939;28;20019;-70
2022/03/25 06:38:30;;;;;;;1.02;1.00;;;7.20;69.90;;;;;;5051842;28;20028;-71
2022/03/25 06:40:56;;;;;;;1.05;0.95;;;7.30;68.50;;;;;;5048410;28;20626;-71
2022/03/25 06:43:21;;;;;;;7.53;1.42;;;7.40;68.20;;;;;;5033187;28;20035;-71
2022/03/25 06:45:47;;;;;;;0.70;0.70;;;7.50;68.00;;;;;;5042166;28;20021;-71
2022/03/25 06:48:13;;;;;;;3.85;1.65;;;7.70;67.80;;;;;;5053139;28;20025;-71
2022/03/25 06:50:39;;;;;;;3.08;2.15;;;7.80;67.60;;;;;;5052730;28;20021;-70
2022/03/25 06:53:06;;;;;;;2.38;1.63;;;7.90;66.90;;;;;;5052575;28;20033;-71
2022/03/25 06:55:32;;;;;;;2.40;1.63;;;8.00;66.50;;;;;;5033185;28;20022;-70
2022/03/25 06:57:58;;;;;;;1.75;0.95;;;8.10;66.40;;;;;;5014820;28;20028;-71
2022/03/25 07:00:24;;;;;;;0.77;0.77;;;8.30;66.30;;;;;;5032584;28;20022;-71
2022/03/25 07:02:52;;;;;;;3.95;2.47;;;8.40;65.60;;;;;;5031800;28;20025;-71
2022/03/25 07:05:18;;;;;;;20.38;6.72;;;8.50;64.20;;;;;;5032450;28;20023;-71
2022/03/25 07:07:44;;;;;;;2.63;1.35;;;8.50;64.50;;;;;;5032894;28;20358;-71
2022/03/25 07:10:12;;;;;;;6.95;2.45;;;8.70;63.90;;;;;;5051325;28;20037;-71
2022/03/25 07:12:42;;;;;;;2.83;1.45;;;8.70;63.90;;;;;;5052425;28;20025;-71
2022/03/25 07:15:09;;;;;;;0.20;0.20;;;8.80;63.70;;;;;;5052317;28;20025;-71
2022/03/25 07:17:37;;;;;;;0.60;0.60;;;9.00;63.80;;;;;;5051547;28;20044;-71
2022/03/25 07:20:06;;;;;;;1.50;1.42;;;9.20;63.30;;;;;;5051924;28;20025;-72
2022/03/25 07:22:34;;;;;;;0.25;0.25;;;9.30;62.40;;;;;;5051151;28;20431;-72
2022/03/25 07:25:00;;;;;;;0.25;0.25;;;9.50;62.00;;;;;;5051935;28;20072;-71
2022/03/25 07:27:26;;;;;;;6.18;1.90;;;9.70;61.60;;;;;;5051259;28;20041;-71
2022/03/25 07:29:52;;;;;;;3.85;1.95;;;9.80;60.60;;;;;;5052186;28;20032;-71
2022/03/25 07:32:18;;;;;;;0.40;0.40;;;9.90;60.30;;;;;;5052108;28;20469;-71
2022/03/25 07:34:44;;;;;;;0.63;0.63;;;10.00;59.70;;;;;;5033998;28;20021;-71
2022/03/25 07:37:10;;;;;;;0.30;0.30;;;10.20;58.70;;;;;;5052070;28;20025;-71
2022/03/25 07:39:35;;;;;;;0.77;0.63;;;10.30;58.30;;;;;;5052106;28;20053;-71
2022/03/25 07:42:01;;;;;;;0.20;0.20;;;10.30;57.80;;;;;;5051609;28;20057;-71
2022/03/25 07:44:27;;;;;;;0.30;0.30;;;10.40;57.80;;;;;;5051896;28;20064;-71
2022/03/25 07:46:53;;;;;;;1.77;1.67;;;10.50;57.40;;;;;;5050548;28;20025;-71
2022/03/25 07:49:19;;;;;;;0.20;0.20;;;10.70;57.30;;;;;;5033751;28;20090;-71
2022/03/25 07:51:45;;;;;;;0.30;0.30;;;10.90;57.20;;;;;;5051855;28;20025;-71
2022/03/25 07:54:11;;;;;;;0.60;0.60;;;11.00;57.10;;;;;;5033704;28;20025;-71
2022/03/25 07:56:37;;;;;;;0.20;0.20;;;11.10;57.40;;;;;;5050065;28;20023;-72
2022/03/25 07:59:03;;;;;;;0.20;0.20;;;11.20;57.00;;;;;;5024237;28;20035;-71
2022/03/25 08:01:29;;;;;;;0.22;0.22;;;11.20;57.10;;;;;;5038569;28;20033;-71
2022/03/25 08:03:56;;;;;;;0.30;0.30;;;11.40;57.00;;;;;;5046096;28;20031;-71
2022/03/25 08:06:22;;;;;;;1.30;1.20;;;11.40;56.50;;;;;;5038068;28;20044;-71
2022/03/25 08:08:49;;;;;;;0.20;0.20;;;11.40;56.40;;;;;;5005527;28;20367;-71
2022/03/25 08:11:17;;;;;;;0.30;0.30;;;11.50;56.80;;;;;;5022043;28;20047;-71
2022/03/25 08:13:43;;;;;;;0.30;0.30;;;11.60;56.70;;;;;;5021512;28;20044;-71
2022/03/25 08:16:08;;;;;;;0.20;0.20;;;11.70;55.90;;;;;;5021987;28;20025;-71
2022/03/25 08:18:34;;;;;;;0.20;0.20;;;11.80;56.00;;;;;;5039286;28;20068;-71
2022/03/25 08:21:00;;;;;;;0.30;0.30;;;11.90;55.60;;;;;;5039725;28;20036;-71
2022/03/25 08:28:59;;;;;;;0.20;0.20;;;12.10;54.90;;;;;;5038933;28;20113;-71
2022/03/25 08:31:25;;;;;;;0.20;0.20;;;12.20;55.60;;;;;;5004234;28;20037;-71
2022/03/25 08:33:51;;;;;;;0.20;0.20;;;12.30;55.30;;;;;;5039807;28;20368;-71
2022/03/25 08:36:17;;;;;;;0.20;0.20;;;12.40;54.80;;;;;;5021891;28;20586;-71
2022/03/25 08:38:44;;;;;;;0.75;0.75;;;12.50;54.10;;;;;;5039305;28;20416;-72
2022/03/25 08:41:10;;;;;;;0.20;0.20;;;12.60;53.30;;;;;;5039677;28;20119;-71
2022/03/25 08:43:36;;;;;;;0.20;0.20;;;12.60;53.50;;;;;;5039855;28;20489;-71
2022/03/25 08:46:03;;;;;;;0.20;0.20;;;12.70;53.10;;;;;;5021483;28;20029;-71
2022/03/25 08:48:29;;;;;;;4.95;3.83;;;12.90;49.80;;;;;;5039146;28;20451;-72
2022/03/25 08:50:55;;;;;;;0.50;0.50;;;13.00;48.80;;;;;;5039893;28;20045;-72
2022/03/25 08:53:21;;;;;;;4.38;1.67;;;13.20;49.10;;;;;;5041543;28;20032;-72
2022/03/25 08:55:47;;;;;;;0.50;0.50;;;13.40;51.20;;;;;;5043426;28;20033;-71
2022/03/25 08:58:13;;;;;;;0.20;0.20;;;13.50;51.30;;;;;;5043217;28;20029;-72
2022/03/25 09:00:39;;;;;;;0.20;0.20;;;13.90;50.30;;;;;;5043581;28;20082;-72
2022/03/25 09:03:05;;;;;;;0.20;0.20;;;14.30;49.30;;;;;;5041627;28;20557;-72
2022/03/25 09:05:31;;;;;;;1.27;1.20;;;14.50;48.10;;;;;;5025231;28;20039;-71
2022/03/25 09:07:57;;;;;;;0.20;0.20;;;14.90;48.10;;;;;;5025235;28;20673;-71
2022/03/25 09:10:23;;;;;;;0.20;0.20;;;15.20;47.00;;;;;;5024576;28;20037;-71
2022/03/25 09:12:49;;;;;;;0.20;0.20;;;15.50;45.70;;;;;;5024681;28;20075;-70
2022/03/25 09:15:16;;;;;;;0.30;0.30;;;15.80;45.10;;;;;;5042283;28;20035;-69
2022/03/25 09:17:46;;;;;;;0.40;0.40;;;15.80;44.90;;;;;;5042948;28;20087;-70
2022/03/25 09:20:13;;;;;;;1.23;1.17;;;16.40;44.90;;;;;;5024287;28;20160;-70
2022/03/25 09:22:39;;;;;;;1.92;1.45;;;16.70;44.40;;;;;;5043136;28;20060;-72
2022/03/25 09:25:07;;;;;;;0.40;0.40;;;17.20;42.90;;;;;;5042432;28;20033;-71
2022/03/25 09:27:35;;;;;;;5.07;4.78;;;17.20;42.40;;;;;;5042461;28;20067;-70
2022/03/25 09:30:01;;;;;;;5.65;5.30;;;17.50;42.20;;;;;;5042415;28;20029;-71
2022/03/25 09:32:27;;;;;;;15.40;4.88;;;17.60;41.20;;;;;;5042796;28;20108;-71
2022/03/25 09:35:08;;;;;;;6.13;3.40;;;18.00;41.70;;;;;;5042754;28;20123;-70
2022/03/25 09:37:35;;;;;;;0.63;0.63;;;18.40;41.60;;;;;;5024513;28;20033;-72
2022/03/25 09:40:03;;;;;;;0.10;0.10;;;18.50;41.10;;;;;;5023985;28;20496;-72
2022/03/25 09:42:32;;;;;;;0.10;0.10;;;18.70;40.30;;;;;;5041904;28;20032;-72
2022/03/25 09:45:01;;;;;;;0.50;0.50;;;19.10;39.20;;;;;;5024566;28;20501;-72
2022/03/25 09:47:27;;;;;;;0.55;0.50;;;19.60;38.80;;;;;;5042654;28;20056;-71
2022/03/25 09:49:53;;;;;;;1.35;1.30;;;19.80;37.30;;;;;;5041862;28;20024;-71
2022/03/25 09:52:19;;;;;;;0.82;0.82;;;20.00;37.20;;;;;;5042178;28;20555;-71
2022/03/25 09:54:45;;;;;;;0.13;0.13;;;20.20;37.00;;;;;;5040981;28;20792;-71
2022/03/25 09:57:11;;;;;;;5.50;3.83;;;20.50;36.50;;;;;;5042224;28;20100;-71
2022/03/25 09:59:36;;;;;;;1.52;1.42;;;20.40;35.90;;;;;;5041732;28;20082;-71
2022/03/25 10:02:04;;;;;;;1.17;0.65;;;20.40;36.40;;;;;;5024005;28;20455;-71
2022/03/25 10:04:41;;;;;;;1.95;1.83;;;20.10;35.60;;;;;;5022583;28;20493;-72
2022/03/25 10:07:34;;;;;;;2.08;1.65;;;20.20;36.70;;;;;;5041839;28;20037;-71
2022/03/25 10:10:10;;;;;;;0.28;0.28;;;20.70;35.00;;;;;;5037248;28;20115;-71
2022/03/25 10:12:38;;;;;;;0.10;0.10;;;21.00;34.50;;;;;;5042290;28;20488;-71
2022/03/25 10:15:25;;;;;;;0.85;0.73;;;21.00;34.60;;;;;;5040810;28;20220;-71
2022/03/25 10:18:01;;;;;;;0.15;0.15;;;21.20;34.60;;;;;;5042331;28;20409;-72
2022/03/25 10:20:31;;;;;;;2.58;2.38;;;21.50;33.90;;;;;;5043886;28;20473;-72
2022/03/25 10:23:01;;;;;;;0.30;0.30;;;21.80;33.60;;;;;;5052612;28;20025;-71
2022/03/25 10:25:51;;;;;;;3.17;2.92;;;21.90;33.00;;;;;;5039168;28;20041;-72
2022/03/25 10:28:27;;;;;;;0.30;0.30;;;22.10;32.40;;;;;;5041413;28;20037;-71
2022/03/25 10:31:16;;;;;;;0.73;0.52;;;22.30;32.60;;;;;;5041235;28;20960;-71
2022/03/25 10:33:47;;;;;;;3.63;1.75;;;22.40;32.00;;;;;;5030150;28;20025;-71
2022/03/25 10:36:14;;;;;;;1.38;1.35;;;22.50;32.60;;;;;;5034867;28;20049;-71
2022/03/25 10:38:55;;;;;;;1.02;0.77;;;22.70;31.10;;;;;;5034259;23;20456;-76
2022/03/25 10:41:35;;;;;;;3.03;0.95;;;22.40;30.90;;;;;;4979173;28;20030;-75
2022/03/25 10:44:05;;;;;;;0.82;0.82;;;22.50;32.30;;;;;;5003507;28;20316;-74
2022/03/25 10:46:36;;;;;;;0.68;0.68;;;22.80;31.20;;;;;;5032485;28;20029;-74
2022/03/25 10:49:05;;;;;;;1.75;1.65;;;22.80;31.50;;;;;;5015267;28;20025;-74
2022/03/25 10:51:33;;;;;;;0.20;0.20;;;23.20;30.60;;;;;;5032785;28;20425;-74
2022/03/25 10:54:03;;;;;;;1.27;0.55;;;23.00;30.70;;;;;;5032885;28;20077;-74
2022/03/25 10:56:43;;;;;;;1.50;0.77;;;23.10;30.40;;;;;;5032552;28;20029;-75
2022/03/25 10:59:22;;;;;;;2.75;2.17;;;23.30;29.70;;;;;;5032346;28;20384;-76
2022/03/25 11:01:50;;;;;;;8.27;5.10;;;23.40;29.50;;;;;;5032259;28;20067;-75
2022/03/25 11:04:16;;;;;;;0.40;0.40;;;23.20;29.60;;;;;;5032493;28;20017;-74
2022/03/25 11:06:44;;;;;;;0.88;0.68;;;23.30;30.00;;;;;;5032537;28;20091;-75
2022/03/25 11:09:11;;;;;;;3.45;1.50;;;23.20;29.70;;;;;;4998914;28;20060;-75
2022/03/25 11:11:37;;;;;;;1.50;1.40;;;23.00;30.00;;;;;;5014477;28;20021;-75
2022/03/25 11:14:04;;;;;;;0.60;0.60;;;22.80;29.10;;;;;;5014063;28;20035;-75
2022/03/25 11:16:33;;;;;;;1.95;1.10;;;22.70;30.20;;;;;;5031151;28;20377;-75
2022/03/25 11:18:59;;;;;;;3.53;3.20;;;23.50;30.50;;;;;;5032144;28;20029;-75
2022/03/25 11:21:27;;;;;;;1.40;0.70;;;23.70;29.90;;;;;;5014182;28;20574;-76
2022/03/25 11:23:54;;;;;;;4.53;1.52;;;23.70;30.90;;;;;;5031736;28;20033;-76
2022/03/25 11:26:23;;;;;;;2.88;2.17;;;23.60;31.60;;;;;;5031713;28;20039;-76
2022/03/25 11:28:59;;;;;;;3.38;2.08;;;23.60;31.40;;;;;;5031734;28;20021;-75
2022/03/25 11:31:25;;;;;;;0.47;0.47;;;23.70;30.70;;;;;;5025532;28;20504;-75
2022/03/25 11:34:11;;;;;;;3.25;2.50;;;24.10;30.70;;;;;;4997759;28;20078;-74
2022/03/25 11:36:43;;;;;;;1.67;0.65;;;24.30;30.00;;;;;;5016177;28;20029;-75
2022/03/25 11:39:20;;;;;;;;;;;24.20;30.10;;;;;;4995551;28;20034;-75
2022/03/25 11:41:46;;;;;;;0.38;0.38;;;24.20;30.00;;;;;;5011921;28;19948;-75
2022/03/25 11:44:25;;;;;;;0.68;0.68;;;24.50;29.20;;;;;;5012157;28;20050;-75
2022/03/25 11:47:00;;;;;;;0.60;0.32;;;24.00;29.10;;;;;;5012191;28;20084;-75
2022/03/25 11:49:36;;;;;;;3.88;2.15;;;24.30;29.20;;;;;;5027683;28;20404;-75
2022/03/25 11:52:23;;;;;;;0.90;0.90;;;24.40;28.80;;;;;;5029987;28;20025;-75
2022/03/25 11:54:55;;;;;;;0.35;0.35;;;24.30;28.90;;;;;;5031691;28;20091;-75
2022/03/25 11:57:29;;;;;;;1.20;1.08;;;24.20;28.30;;;;;;5013757;28;20037;-75
2022/03/25 12:00:00;;;;;;;0.95;0.95;;;24.40;27.80;;;;;;5031893;28;20500;-75
2022/03/25 12:02:40;;;;;;;4.38;1.48;;;24.40;27.70;;;;;;5014173;28;20049;-75
2022/03/25 12:06:05;;;;;;;5.60;5.07;;;24.10;27.80;;;;;;5032585;28;20033;-72
2022/03/25 12:08:32;;;;;;;3.78;1.65;;;24.10;28.40;;;;;;4972486;28;20099;-76
2022/03/25 12:11:00;;;;;;;6.53;2.20;;;23.80;27.70;;;;;;4972442;28;20074;-76
2022/03/25 12:14:01;;;;;;;7.78;1.17;;;23.50;28.20;;;;;;4994871;28;20129;-76
2022/03/25 12:16:45;;;;;;;4.47;2.87;;;23.80;27.90;;;;;;5033027;28;20033;-76
2022/03/25 12:19:26;;;;;;;10.55;3.92;;;23.90;27.70;;;;;;4999886;28;20055;-76
2022/03/25 12:22:15;;;;;;;2.45;2.28;;;24.10;27.80;;;;;;5034013;28;20037;-76
2022/03/25 12:24:41;;;;;;;5.78;2.92;;;23.80;27.40;;;;;;4987322;28;22440;-76
2022/03/25 12:27:07;;;;;;;6.85;5.70;;;23.30;28.30;;;;;;4991252;28;20028;-76
2022/03/25 12:29:38;;;;;;;4.55;2.53;;;23.30;28.60;;;;;;5025752;28;20112;-76
2022/03/25 12:32:06;;;;;;;5.63;3.00;;;23.10;28.40;;;;;;5036774;28;20033;-76
2022/03/25 12:34:56;;;;;;;7.93;2.60;;;22.50;29.20;;;;;;5023581;28;20084;-76
2022/03/25 12:37:41;;;;;;;4.57;4.25;;;22.10;29.30;;;;;;5019806;28;20041;-75
2022/03/25 12:40:29;;;;;;;0.98;0.95;;;22.00;29.30;;;;;;5019119;28;20442;-75
2022/03/25 12:43:01;;;;;;;8.13;3.13;;;21.70;29.90;;;;;;5021674;28;20484;-75
2022/03/25 12:45:34;;;;;;;0.70;0.70;;;21.80;29.00;;;;;;5021824;28;20085;-75
2022/03/25 12:48:09;;;;;;;7.95;4.75;;;21.70;29.30;;;;;;5007738;28;20048;-75
2022/03/25 12:50:35;;;;;;;0.80;0.45;;;21.60;29.70;;;;;;5019106;28;20552;-77
2022/03/25 12:53:02;;;;;;;11.57;6.32;;;21.80;29.60;;;;;;5037396;28;20389;-76
2022/03/25 12:55:29;;;;;;;3.85;2.58;;;21.50;29.30;;;;;;5037089;28;20022;-76
2022/03/25 12:58:02;;;;;;;6.60;3.58;;;21.40;29.60;;;;;;5018861;28;20029;-76
2022/03/25 13:00:33;;;;;;;13.20;4.03;;;21.20;29.30;;;;;;5036509;28;20025;-77
2022/03/25 13:02:59;;;;;;;0.80;0.80;;;21.00;29.60;;;;;;5036928;28;20025;-76